createdAt,value
2023-04-14T00:04:24.393Z,2.97
2023-04-14T00:09:10.305Z,3.13
2023-04-14T00:14:01.626Z,2.33
2023-04-14T00:18:47.815Z,5.87
2023-04-14T00:23:31.430Z,2.67
2023-04-14T00:28:22.848Z,3.67
2023-04-14T00:33:11.407Z,4.37
2023-04-14T00:37:58.565Z,3.27
2023-04-14T00:42:45.552Z,3.47
2023-04-14T00:47:42.294Z,3.67
2023-04-14T00:52:41.383Z,3.47
2023-04-14T00:57:28.697Z,6.33
2023-04-14T01:02:15.533Z,5.47
2023-04-14T01:07:08.756Z,2.60
2023-04-14T01:12:21.927Z,5.43
2023-04-14T01:17:31.306Z,5.00
2023-04-14T01:22:30.570Z,6.00
2023-04-14T01:27:53.003Z,2.67
2023-04-14T01:32:56.798Z,4.13
2023-04-14T01:37:57.857Z,3.57
2023-04-14T01:43:21.863Z,4.13
2023-04-14T01:48:11.367Z,3.03
2023-04-14T01:52:57.147Z,3.60
2023-04-14T01:57:59.581Z,4.13
2023-04-14T02:02:52.354Z,3.53
2023-04-14T02:07:39.255Z,3.43
2023-04-14T02:12:26.130Z,6.77
2023-04-14T02:17:13.842Z,4.40
2023-04-14T02:22:01.364Z,3.77
2023-04-14T02:27:04.859Z,3.97
2023-04-14T02:32:06.250Z,4.50
2023-04-14T02:36:59.237Z,4.20
2023-04-14T02:41:46.421Z,7.87
2023-04-14T02:46:49.247Z,5.40
2023-04-14T02:51:39.102Z,6.73
2023-04-14T02:56:37.444Z,4.97
2023-04-14T03:01:29.666Z,5.33
2023-04-14T03:06:17.159Z,3.70
2023-04-14T03:11:04.083Z,5.33
2023-04-14T03:15:57.626Z,5.80
2023-04-14T04:05:29.842Z,8.10
2023-04-14T04:10:17.734Z,7.03
2023-04-14T04:15:06.511Z,9.10
2023-04-14T04:19:52.393Z,8.00
2023-04-14T04:30:15.978Z,8.70
2023-04-14T04:46:04.015Z,13.80
2023-04-14T04:50:49.430Z,7.13
2023-04-14T04:55:37.384Z,6.73
2023-04-14T05:00:26.171Z,6.00
2023-04-14T05:05:16.308Z,5.70
2023-04-14T05:10:01.660Z,7.43
2023-04-14T05:14:54.447Z,9.63
2023-04-14T05:20:08.569Z,8.67
2023-04-14T05:25:00.112Z,9.80
2023-04-14T05:29:48.988Z,9.67
2023-04-14T05:34:33.225Z,7.77
2023-04-14T05:39:20.050Z,8.17
2023-04-14T05:44:12.378Z,8.80
2023-04-14T05:49:30.063Z,9.50
2023-04-14T05:54:21.052Z,7.97
2023-04-14T05:59:04.564Z,10.97
2023-04-14T06:03:52.141Z,8.73
2023-04-14T06:08:43.496Z,6.57
2023-04-14T06:13:34.839Z,9.90
2023-04-14T06:18:31.283Z,6.87
2023-04-14T06:29:10.597Z,6.93
2023-04-14T06:34:02.185Z,7.43
2023-04-14T06:44:13.152Z,7.27
2023-04-14T06:48:57.139Z,7.87
2023-04-14T06:53:45.914Z,7.83
2023-04-14T06:58:31.254Z,8.43
2023-04-14T07:03:51.979Z,7.07
2023-04-14T07:08:41.735Z,8.40
2023-04-14T07:13:30.727Z,5.30
2023-04-14T07:18:28.937Z,4.87
2023-04-14T07:23:22.761Z,5.23
2023-04-14T07:28:10.570Z,7.03
2023-04-14T07:32:57.841Z,4.87
2023-04-14T07:37:44.122Z,3.70
2023-04-14T07:43:00.403Z,5.97
2023-04-14T07:47:55.269Z,5.67
2023-04-14T07:52:40.923Z,4.57
2023-04-14T07:57:32.647Z,5.70
2023-04-14T08:02:20.005Z,7.43
2023-04-14T08:07:04.535Z,6.50
2023-04-14T08:12:10.508Z,9.70
2023-04-14T08:16:58.761Z,6.17
2023-04-14T08:21:47.366Z,6.20
2023-04-14T08:26:33.659Z,6.63
2023-04-14T08:31:23.424Z,7.07
2023-04-14T08:36:09.025Z,7.60
2023-04-14T08:41:29.750Z,9.57
2023-04-14T08:46:46.904Z,6.00
2023-04-14T08:51:40.346Z,4.97
2023-04-14T08:56:46.262Z,6.87
2023-04-14T09:02:16.419Z,4.60
2023-04-14T09:07:23.473Z,5.50
2023-04-14T09:12:52.304Z,6.03
2023-04-14T09:23:16.738Z,5.17
2023-04-14T09:29:01.326Z,4.40
2023-04-14T09:34:19.769Z,4.70
2023-04-14T09:39:33.031Z,3.30
2023-04-14T09:57:01.693Z,4.43
2023-04-14T10:07:42.265Z,5.50
2023-04-14T10:12:39.705Z,3.83
2023-04-14T10:17:46.504Z,4.67
2023-04-14T10:22:33.065Z,4.87
2023-04-14T10:28:14.486Z,4.63
2023-04-14T10:56:41.939Z,2.80
2023-04-14T12:41:11.236Z,5.80
2023-04-14T12:53:33.979Z,4.87
2023-04-14T13:05:12.411Z,5.63
2023-04-14T13:16:16.932Z,4.67
2023-04-14T15:24:10.250Z,4.60
2023-04-14T15:29:01.988Z,5.20
2023-04-14T15:33:46.475Z,5.13
2023-04-14T15:38:34.742Z,5.23
2023-04-14T15:48:27.177Z,6.57
2023-04-14T15:53:13.990Z,5.73
2023-04-14T15:58:04.183Z,6.13
2023-04-14T16:02:49.226Z,5.70
2023-04-14T18:55:24.872Z,9.40
2023-04-14T19:11:22.598Z,7.03
2023-04-14T19:16:28.033Z,7.15
2023-04-14T19:21:11.551Z,6.43
2023-04-14T19:26:01.906Z,5.83
2023-04-14T19:30:52.080Z,6.10
2023-04-14T19:35:38.088Z,5.73
2023-04-14T19:40:23.389Z,5.83
2023-04-14T19:45:32.544Z,5.67
2023-04-14T19:56:29.192Z,5.10
2023-04-14T20:01:30.887Z,5.50
2023-04-14T20:06:36.794Z,5.30
2023-04-14T20:12:28.021Z,5.47
2023-04-14T20:17:46.908Z,4.83
2023-04-14T20:22:34.251Z,4.13
2023-04-14T20:28:06.097Z,4.67
2023-04-14T20:33:28.903Z,4.30
2023-04-14T20:38:17.572Z,4.53
2023-04-14T20:43:33.221Z,4.40
2023-04-14T20:48:54.121Z,3.90
2023-04-14T20:54:05.879Z,4.17
2023-04-14T20:58:50.205Z,5.20
2023-04-14T21:03:37.285Z,4.23
2023-04-14T21:08:27.230Z,4.37
2023-04-14T21:25:34.983Z,4.00
2023-04-14T21:47:56.492Z,4.37
2023-04-14T23:13:01.291Z,2.40
